createdAt,value
2018-12-21T00:01:08.077Z,6.60
2018-12-21T00:03:36.286Z,6.60
2018-12-21T00:06:04.676Z,6.70
2018-12-21T00:08:32.872Z,6.70
2018-12-21T00:11:01.076Z,6.80
2018-12-21T00:13:29.295Z,6.80
2018-12-21T00:15:57.488Z,6.80
2018-12-21T00:18:25.680Z,6.80
2018-12-21T00:20:53.885Z,6.80
2018-12-21T00:23:22.085Z,6.90
2018-12-21T00:25:50.331Z,6.90
2018-12-21T00:28:18.524Z,7.00
2018-12-21T00:30:46.020Z,6.90
2018-12-21T00:33:19.477Z,6.90
2018-12-21T00:35:52.997Z,7.00
2018-12-21T00:38:26.609Z,7.00
2018-12-21T00:41:00.248Z,7.00
2018-12-21T00:43:36.845Z,7.00
2018-12-21T00:46:10.644Z,7.10
2018-12-21T00:48:38.844Z,7.10
2018-12-21T00:51:07.140Z,6.90
2018-12-21T00:53:35.597Z,7.00
2018-12-21T00:56:04.180Z,7.00
2018-12-21T00:58:32.381Z,7.00
2018-12-21T01:01:00.969Z,7.00
2018-12-21T01:03:29.184Z,7.00
2018-12-21T01:05:57.622Z,7.10
2018-12-21T01:08:25.842Z,7.10
2018-12-21T01:10:54.057Z,7.10
2018-12-21T01:13:22.538Z,7.10
2018-12-21T01:15:51.032Z,7.10
2018-12-21T01:18:19.492Z,7.20
2018-12-21T01:20:47.785Z,7.10
2018-12-21T01:23:16.237Z,7.10
2018-12-21T01:25:44.525Z,7.10
2018-12-21T01:28:12.724Z,7.20
2018-12-21T01:30:41.004Z,7.10
2018-12-21T01:33:09.208Z,7.10
2018-12-21T01:35:37.408Z,7.00
2018-12-21T01:38:05.700Z,7.10
2018-12-21T01:40:33.888Z,7.20
2018-12-21T01:43:02.101Z,7.30
2018-12-21T01:45:30.321Z,7.20
2018-12-21T01:47:58.557Z,7.10
2018-12-21T01:50:26.773Z,7.10
2018-12-21T01:52:54.984Z,7.20
2018-12-21T01:55:23.472Z,7.20
2018-12-21T01:57:51.916Z,7.10
2018-12-21T02:00:20.287Z,7.10
2018-12-21T02:02:49.080Z,7.00
2018-12-21T02:05:17.700Z,7.00
2018-12-21T02:07:45.908Z,7.00
2018-12-21T02:10:14.197Z,7.00
2018-12-21T02:12:42.493Z,7.00
2018-12-21T02:15:10.789Z,7.00
2018-12-21T02:17:38.997Z,7.10
2018-12-21T02:20:07.450Z,7.20
2018-12-21T02:22:35.652Z,7.20
2018-12-21T02:25:04.067Z,7.20
2018-12-21T02:27:32.285Z,7.20
2018-12-21T02:30:00.498Z,7.20
2018-12-21T02:32:28.697Z,7.20
2018-12-21T02:34:56.881Z,7.20
2018-12-21T02:37:25.377Z,7.10
2018-12-21T02:39:53.661Z,7.10
2018-12-21T02:42:22.178Z,7.00
2018-12-21T02:44:50.368Z,7.10
2018-12-21T02:47:18.569Z,7.10
2018-12-21T02:49:46.760Z,7.20
2018-12-21T02:52:14.954Z,7.20
2018-12-21T02:54:43.143Z,7.20
2018-12-21T02:57:11.597Z,7.30
2018-12-21T02:59:39.784Z,7.30
2018-12-21T03:02:07.989Z,7.30
2018-12-21T03:04:36.198Z,7.20
2018-12-21T03:07:04.551Z,7.30
2018-12-21T03:09:32.774Z,7.30
2018-12-21T03:12:00.972Z,7.30
2018-12-21T03:14:29.183Z,7.30
2018-12-21T03:16:57.387Z,7.30
2018-12-21T03:19:25.956Z,7.40
2018-12-21T03:21:54.169Z,7.40
2018-12-21T03:24:22.364Z,7.40
2018-12-21T03:26:51.055Z,7.30
2018-12-21T03:29:19.261Z,7.30
2018-12-21T03:31:47.690Z,7.40
2018-12-21T03:34:16.238Z,7.40
2018-12-21T03:36:44.442Z,7.50
2018-12-21T03:39:12.652Z,7.50
2018-12-21T03:41:40.950Z,7.40
2018-12-21T03:44:09.215Z,7.40
2018-12-21T03:46:37.426Z,7.40
2018-12-21T03:49:05.945Z,7.40
2018-12-21T03:51:34.239Z,7.50
2018-12-21T03:54:02.768Z,7.40
2018-12-21T03:56:30.972Z,7.40
2018-12-21T03:58:59.168Z,7.30
2018-12-21T04:01:27.365Z,7.30
2018-12-21T04:03:55.588Z,7.30
2018-12-21T04:06:23.785Z,7.40
2018-12-21T04:08:52.249Z,7.40
2018-12-21T04:11:20.720Z,7.40
2018-12-21T04:13:48.930Z,7.40
2018-12-21T04:16:17.128Z,7.50
2018-12-21T04:18:45.318Z,7.50
2018-12-21T04:21:13.537Z,7.40
2018-12-21T04:23:41.770Z,7.50
2018-12-21T04:26:09.982Z,7.50
2018-12-21T04:28:38.176Z,7.60
2018-12-21T04:31:06.368Z,7.60
2018-12-21T04:33:34.557Z,7.70
2018-12-21T04:36:03.123Z,7.70
2018-12-21T04:38:31.545Z,7.70
2018-12-21T04:40:59.824Z,7.70
2018-12-21T04:43:28.026Z,7.60
2018-12-21T04:45:56.223Z,7.60
2018-12-21T04:48:24.507Z,7.50
2018-12-21T04:50:52.700Z,7.40
2018-12-21T04:53:20.908Z,7.30
2018-12-21T04:55:49.096Z,7.40
2018-12-21T04:58:17.358Z,7.40
2018-12-21T05:00:45.562Z,7.40
2018-12-21T05:03:13.867Z,7.30
2018-12-21T05:05:42.054Z,7.30
2018-12-21T05:08:10.261Z,7.30
2018-12-21T05:10:38.453Z,7.20
2018-12-21T05:13:07.253Z,7.20
2018-12-21T05:15:35.877Z,7.10
2018-12-21T05:18:04.465Z,7.10
2018-12-21T05:20:32.661Z,7.10
2018-12-21T05:23:00.865Z,7.10
2018-12-21T05:25:29.053Z,7.00
2018-12-21T05:27:57.256Z,7.00
2018-12-21T05:30:25.717Z,7.00
2018-12-21T05:32:53.930Z,6.90
2018-12-21T05:35:22.146Z,6.80
2018-12-21T05:37:50.402Z,6.80
2018-12-21T05:40:18.617Z,6.80
2018-12-21T05:42:46.819Z,6.70
2018-12-21T05:45:15.340Z,6.70
2018-12-21T05:47:43.564Z,6.70
2018-12-21T05:50:12.280Z,6.60
2018-12-21T05:52:40.572Z,7.20
2018-12-21T05:55:08.773Z,7.90
2018-12-21T05:57:37.317Z,8.40
2018-12-21T06:00:07.193Z,8.50
2018-12-21T06:02:35.629Z,8.60
2018-12-21T06:05:04.060Z,8.90
2018-12-21T06:07:33.909Z,8.70
2018-12-21T06:10:02.334Z,8.40
2018-12-21T06:12:30.532Z,7.90
2018-12-21T06:14:58.773Z,7.50
2018-12-21T06:17:27.027Z,7.30
2018-12-21T06:19:55.246Z,7.10
2018-12-21T06:22:23.716Z,7.10
2018-12-21T06:24:51.920Z,7.00
2018-12-21T06:27:20.261Z,7.00
2018-12-21T06:29:48.463Z,7.00
2018-12-21T06:32:17.413Z,6.90
2018-12-21T06:34:45.981Z,6.90
2018-12-21T06:37:14.189Z,6.90
2018-12-21T06:39:42.385Z,6.80
2018-12-21T06:42:10.901Z,6.80
2018-12-21T06:44:39.161Z,6.70
2018-12-21T06:47:07.452Z,6.70
2018-12-21T06:49:35.848Z,6.70
2018-12-21T06:52:04.069Z,6.60
2018-12-21T06:54:32.307Z,6.60
2018-12-21T06:57:00.758Z,6.60
2018-12-21T06:59:29.098Z,6.50
2018-12-21T07:01:57.484Z,6.50
2018-12-21T07:04:25.800Z,6.50
2018-12-21T07:06:53.996Z,6.50
2018-12-21T07:09:22.396Z,6.40
2018-12-21T07:11:50.853Z,6.40
2018-12-21T07:14:19.209Z,6.40
2018-12-21T07:16:47.696Z,6.40
2018-12-21T07:19:16.192Z,6.40
2018-12-21T07:21:44.389Z,6.30
2018-12-21T07:24:12.641Z,6.20
2018-12-21T07:26:41.484Z,6.30
2018-12-21T07:29:09.748Z,6.30
2018-12-21T07:31:38.569Z,6.30
2018-12-21T07:34:06.803Z,6.30
2018-12-21T07:36:35.081Z,6.30
2018-12-21T07:39:05.265Z,6.30
2018-12-21T07:41:33.472Z,6.30
2018-12-21T07:44:01.686Z,6.30
2018-12-21T07:46:29.879Z,6.40
2018-12-21T07:48:58.185Z,6.30
2018-12-21T07:51:26.820Z,6.30
2018-12-21T07:53:55.125Z,6.30
2018-12-21T07:56:23.488Z,6.30
2018-12-21T07:58:57.022Z,6.40
2018-12-21T08:01:22.273Z,6.40
2018-12-21T08:03:50.471Z,6.40
2018-12-21T08:06:18.664Z,6.40
2018-12-21T08:08:46.974Z,6.40
2018-12-21T08:11:15.378Z,6.50
2018-12-21T08:13:43.679Z,6.40
2018-12-21T08:16:12.074Z,6.40
2018-12-21T08:18:40.268Z,6.50
2018-12-21T08:21:08.468Z,6.60
2018-12-21T08:23:44.131Z,6.60
2018-12-21T08:26:07.001Z,6.70
2018-12-21T08:28:35.328Z,6.60
2018-12-21T08:31:03.620Z,6.60
2018-12-21T08:33:31.813Z,6.70
2018-12-21T08:36:00.268Z,6.80
2018-12-21T08:38:28.745Z,6.90
2018-12-21T08:40:58.235Z,6.90
2018-12-21T08:43:26.425Z,7.00
2018-12-21T08:45:54.692Z,7.00
2018-12-21T08:48:22.954Z,7.10
2018-12-21T08:50:51.302Z,7.10
2018-12-21T08:53:19.586Z,7.10
2018-12-21T08:55:47.969Z,7.20
2018-12-21T08:58:16.256Z,7.20
2018-12-21T09:00:44.553Z,7.30
2018-12-21T09:03:13.438Z,7.30
2018-12-21T09:05:41.752Z,7.20
2018-12-21T09:08:09.977Z,7.20
2018-12-21T09:10:38.264Z,7.10
2018-12-21T09:13:06.729Z,7.20
2018-12-21T09:15:34.933Z,7.20
2018-12-21T09:18:03.229Z,7.40
2018-12-21T09:20:31.620Z,7.40
2018-12-21T09:22:59.821Z,7.40
2018-12-21T09:25:28.021Z,7.50
2018-12-21T09:27:56.241Z,7.50
2018-12-21T09:30:24.567Z,7.50
2018-12-21T09:32:53.085Z,7.50
2018-12-21T09:35:21.285Z,7.50
2018-12-21T09:37:49.583Z,7.50
2018-12-21T09:40:17.877Z,7.30
2018-12-21T09:42:46.079Z,7.10
2018-12-21T09:45:14.267Z,6.80
2018-12-21T09:47:42.469Z,6.60
2018-12-21T09:50:10.929Z,6.40
2018-12-21T09:52:39.129Z,6.40
2018-12-21T09:55:07.793Z,6.30
2018-12-21T09:57:36.342Z,6.40
2018-12-21T10:00:06.509Z,6.40
2018-12-21T10:02:35.858Z,6.50
2018-12-21T10:05:05.005Z,6.50
2018-12-21T10:07:33.217Z,6.60
2018-12-21T10:10:01.494Z,6.60
2018-12-21T10:12:29.702Z,6.50
2018-12-21T10:14:57.925Z,6.50
2018-12-21T10:17:26.473Z,6.50
2018-12-21T10:19:54.673Z,6.50
2018-12-21T10:22:22.865Z,6.60
2018-12-21T10:24:51.064Z,6.60
2018-12-21T10:27:19.262Z,6.60
2018-12-21T10:29:47.456Z,6.60
2018-12-21T10:32:15.652Z,6.60
2018-12-21T10:34:43.856Z,6.70
2018-12-21T10:37:12.053Z,6.70
2018-12-21T10:39:40.509Z,6.70
2018-12-21T10:42:09.584Z,6.70
2018-12-21T10:44:38.056Z,6.70
2018-12-21T10:47:06.259Z,6.70
2018-12-21T10:49:34.453Z,6.70
2018-12-21T10:52:02.653Z,6.70
2018-12-21T10:54:30.868Z,6.80
2018-12-21T10:56:59.102Z,6.80
2018-12-21T10:59:27.353Z,6.80
2018-12-21T11:01:55.552Z,6.80
2018-12-21T11:04:23.757Z,6.80
2018-12-21T11:06:52.212Z,6.80
2018-12-21T11:09:20.417Z,6.90
2018-12-21T11:11:48.629Z,6.90
2018-12-21T11:14:16.933Z,6.90
2018-12-21T11:16:45.216Z,6.90
2018-12-21T11:19:13.444Z,7.00
2018-12-21T11:21:41.904Z,6.90
2018-12-21T11:24:10.100Z,6.90
2018-12-21T11:26:38.301Z,6.90
2018-12-21T11:29:06.500Z,6.90
2018-12-21T11:31:34.696Z,6.90
2018-12-21T11:34:03.284Z,7.00
2018-12-21T11:36:31.697Z,7.00
2018-12-21T11:38:59.898Z,7.10
2018-12-21T11:41:28.120Z,7.00
2018-12-21T11:43:56.338Z,7.00
2018-12-21T11:46:24.659Z,7.00
2018-12-21T11:48:53.811Z,7.10
2018-12-21T11:51:22.172Z,7.00
2018-12-21T11:53:50.406Z,7.00
2018-12-21T11:56:18.658Z,7.00
2018-12-21T11:58:46.858Z,7.00
2018-12-21T12:01:15.202Z,7.00
2018-12-21T12:03:43.405Z,7.00
2018-12-21T12:06:11.605Z,7.00
2018-12-21T12:08:39.796Z,7.00
2018-12-21T12:11:08.000Z,7.00
2018-12-21T12:13:36.197Z,7.00
2018-12-21T12:16:04.812Z,7.10
2018-12-21T12:18:33.006Z,7.20
2018-12-21T12:21:01.209Z,7.20
2018-12-21T12:23:29.414Z,7.10
2018-12-21T12:25:57.617Z,7.10
2018-12-21T12:28:25.812Z,7.10
2018-12-21T12:30:54.312Z,7.00
2018-12-21T12:33:22.657Z,6.90
2018-12-21T12:35:50.844Z,6.90
2018-12-21T12:38:19.025Z,7.00
2018-12-21T12:40:47.256Z,7.00
2018-12-21T12:43:15.482Z,7.00
2018-12-21T12:45:43.717Z,7.00
2018-12-21T12:48:12.047Z,7.10
2018-12-21T12:50:40.224Z,7.10
2018-12-21T12:53:08.699Z,7.20
2018-12-21T12:55:37.149Z,7.10
2018-12-21T12:58:05.625Z,7.00
2018-12-21T13:00:34.077Z,7.10
2018-12-21T13:03:02.341Z,7.20
2018-12-21T13:05:30.529Z,7.30
2018-12-21T13:07:58.717Z,7.30
2018-12-21T13:10:27.234Z,7.30
2018-12-21T13:12:55.716Z,7.30
2018-12-21T13:15:23.913Z,7.30
2018-12-21T13:17:52.105Z,7.40
2018-12-21T13:20:20.370Z,7.50
2018-12-21T13:22:48.567Z,7.50
2018-12-21T13:25:16.779Z,7.60
2018-12-21T13:27:44.991Z,7.80
2018-12-21T13:30:13.278Z,7.90
2018-12-21T13:32:41.485Z,8.00
2018-12-21T13:35:09.703Z,8.10
2018-12-21T13:37:38.236Z,8.30
2018-12-21T13:40:09.853Z,8.40
2018-12-21T13:42:38.165Z,8.50
2018-12-21T13:45:08.369Z,8.70
2018-12-21T13:47:36.552Z,8.80
2018-12-21T13:50:06.888Z,8.90
2018-12-21T13:52:35.339Z,9.10
2018-12-21T13:55:03.785Z,9.10
2018-12-21T13:57:31.973Z,9.20
2018-12-21T14:00:00.453Z,9.20
2018-12-21T14:02:28.660Z,9.30
2018-12-21T14:04:56.850Z,9.30
2018-12-21T14:07:25.038Z,9.30
2018-12-21T14:09:53.216Z,9.30
2018-12-21T14:12:21.426Z,9.30
2018-12-21T14:14:49.650Z,9.40
2018-12-21T14:17:17.937Z,9.40
2018-12-21T14:19:46.137Z,9.40
2018-12-21T14:22:14.700Z,9.30
2018-12-21T14:24:43.204Z,9.30
2018-12-21T14:27:11.393Z,9.30
2018-12-21T14:29:39.673Z,9.20
2018-12-21T14:32:07.853Z,9.20
2018-12-21T14:34:36.278Z,9.20
2018-12-21T14:37:04.645Z,9.30
2018-12-21T14:39:33.115Z,9.30
2018-12-21T14:42:01.402Z,9.30
2018-12-21T14:44:29.677Z,9.30
2018-12-21T14:46:58.192Z,9.40
2018-12-21T14:49:26.369Z,9.40
2018-12-21T14:51:54.674Z,9.40
2018-12-21T14:54:23.035Z,9.40
2018-12-21T14:56:51.232Z,9.30
2018-12-21T14:59:19.532Z,9.30
2018-12-21T15:01:47.721Z,9.30
2018-12-21T15:04:15.905Z,9.30
2018-12-21T15:06:44.089Z,9.30
2018-12-21T15:09:12.504Z,9.30
2018-12-21T15:11:40.810Z,9.40
2018-12-21T15:14:08.996Z,9.40
2018-12-21T15:16:37.168Z,9.40
2018-12-21T15:19:05.469Z,9.40
2018-12-21T15:21:33.653Z,9.40
2018-12-21T15:24:01.832Z,9.50
2018-12-21T15:26:30.293Z,9.50
2018-12-21T15:28:58.476Z,9.50
2018-12-21T15:31:26.892Z,9.60
2018-12-21T15:33:55.077Z,9.60
2018-12-21T15:36:23.360Z,9.60
2018-12-21T15:38:51.572Z,9.50
2018-12-21T15:41:19.790Z,9.50
2018-12-21T15:43:47.985Z,9.60
2018-12-21T15:46:16.176Z,9.60
2018-12-21T15:48:44.364Z,9.50
2018-12-21T15:51:13.060Z,9.50
2018-12-21T15:53:41.245Z,9.50
2018-12-21T15:56:09.425Z,9.60
2018-12-21T15:58:37.640Z,9.60
2018-12-21T16:01:05.927Z,9.60
2018-12-21T16:03:34.108Z,9.70
2018-12-21T16:06:02.661Z,9.70
2018-12-21T16:08:30.849Z,9.80
2018-12-21T16:10:59.377Z,9.80
2018-12-21T16:13:27.870Z,9.80
2018-12-21T16:15:56.361Z,9.90
2018-12-21T16:18:24.572Z,10.00
2018-12-21T16:20:52.768Z,10.00
2018-12-21T16:23:20.998Z,10.00
2018-12-21T16:25:49.202Z,10.10
2018-12-21T16:28:17.493Z,10.10
2018-12-21T16:30:45.676Z,10.10
2018-12-21T16:33:14.196Z,10.20
2018-12-21T16:35:42.386Z,10.10
2018-12-21T16:38:10.585Z,10.20
2018-12-21T16:40:39.133Z,10.20
2018-12-21T16:43:07.329Z,10.20
2018-12-21T16:45:35.566Z,10.30
2018-12-21T16:48:04.028Z,10.30
2018-12-21T16:50:32.221Z,10.30
2018-12-21T16:53:00.681Z,10.30
2018-12-21T16:55:28.960Z,10.40
2018-12-21T16:57:57.149Z,10.40
2018-12-21T17:00:25.329Z,10.50
2018-12-21T17:02:53.527Z,10.50
2018-12-21T17:05:21.717Z,10.50
2018-12-21T17:07:49.957Z,10.50
2018-12-21T17:10:21.452Z,10.50
2018-12-21T17:12:49.678Z,10.50
2018-12-21T17:15:17.865Z,10.50
2018-12-21T17:17:46.096Z,10.50
2018-12-21T17:20:14.374Z,10.60
2018-12-21T17:22:42.948Z,10.60
2018-12-21T17:25:13.049Z,10.60
2018-12-21T17:27:41.488Z,10.70
2018-12-21T17:30:11.536Z,10.70
2018-12-21T17:32:39.804Z,10.70
2018-12-21T17:35:08.908Z,10.70
2018-12-21T17:37:38.233Z,10.70
2018-12-21T17:40:08.937Z,10.70
2018-12-21T17:42:37.151Z,10.70
2018-12-21T17:45:06.937Z,10.70
2018-12-21T17:47:35.133Z,10.70
2018-12-21T17:50:03.468Z,10.70
2018-12-21T17:52:31.660Z,10.80
2018-12-21T17:54:59.853Z,10.70
2018-12-21T17:57:28.038Z,10.70
2018-12-21T17:59:56.332Z,10.80
2018-12-21T18:02:24.514Z,10.70
2018-12-21T18:04:52.700Z,10.70
2018-12-21T18:07:20.885Z,10.70
2018-12-21T18:09:49.100Z,10.70
2018-12-21T18:12:17.369Z,10.70
2018-12-21T18:14:45.791Z,10.70
2018-12-21T18:17:14.338Z,10.70
2018-12-21T18:19:42.535Z,10.70
2018-12-21T18:22:14.760Z,10.80
2018-12-21T18:24:43.298Z,10.80
2018-12-21T18:27:11.798Z,10.80
2018-12-21T18:29:41.816Z,10.80
2018-12-21T18:32:26.092Z,10.80
2018-12-21T18:34:54.299Z,10.80
2018-12-21T18:37:22.757Z,10.80
2018-12-21T18:39:50.953Z,10.80
2018-12-21T18:42:19.158Z,10.90
2018-12-21T18:44:47.353Z,10.80
2018-12-21T18:47:15.810Z,10.80
2018-12-21T18:49:44.013Z,10.80
2018-12-21T18:52:12.202Z,10.80
2018-12-21T18:54:40.397Z,10.90
2018-12-21T18:57:11.809Z,11.00
2018-12-21T18:59:40.026Z,11.00
2018-12-21T19:02:08.227Z,10.90
2018-12-21T19:04:36.416Z,10.90
2018-12-21T19:07:04.602Z,10.90
2018-12-21T19:09:32.820Z,11.00
2018-12-21T19:12:01.013Z,10.90
2018-12-21T19:14:29.301Z,10.90
2018-12-21T19:16:57.492Z,10.90
2018-12-21T19:19:26.206Z,10.90
2018-12-21T19:21:54.470Z,10.80
2018-12-21T19:24:22.657Z,10.80
2018-12-21T19:26:55.780Z,10.80
2018-12-21T19:29:21.341Z,10.80
2018-12-21T19:31:49.520Z,10.80
2018-12-21T19:34:17.749Z,10.90
2018-12-21T19:36:45.936Z,10.80
2018-12-21T19:39:14.288Z,10.80
2018-12-21T19:41:42.625Z,10.80
2018-12-21T19:44:11.254Z,10.80
2018-12-21T19:46:39.486Z,10.90
2018-12-21T19:49:07.673Z,10.80
2018-12-21T19:51:36.272Z,10.80
2018-12-21T19:54:04.466Z,10.80
2018-12-21T19:57:11.483Z,10.70
2018-12-21T19:59:39.805Z,10.70
2018-12-21T20:02:09.012Z,10.70
2018-12-21T20:04:38.381Z,10.70
2018-12-21T20:07:06.686Z,10.80
2018-12-21T20:09:34.889Z,10.80
2018-12-21T20:12:03.452Z,10.80
2018-12-21T20:14:31.718Z,10.80
2018-12-21T20:16:59.955Z,10.80
2018-12-21T20:19:28.187Z,10.80
2018-12-21T20:21:56.390Z,10.70
2018-12-21T20:24:28.446Z,10.70
2018-12-21T20:27:00.524Z,10.80
2018-12-21T20:29:28.712Z,10.80
2018-12-21T20:31:57.118Z,10.80
2018-12-21T20:34:25.853Z,10.80
2018-12-21T20:36:54.032Z,10.80
2018-12-21T20:39:26.577Z,10.80
2018-12-21T20:41:54.841Z,10.70
2018-12-21T20:44:23.127Z,10.80
2018-12-21T20:46:51.456Z,10.80
2018-12-21T20:49:19.690Z,10.80
2018-12-21T20:51:47.909Z,10.80
2018-12-21T20:54:16.132Z,10.90
2018-12-21T20:56:47.670Z,10.80
2018-12-21T20:59:19.528Z,10.80
2018-12-21T21:01:47.916Z,10.90
2018-12-21T21:04:16.332Z,10.90
2018-12-21T21:06:44.529Z,10.90
2018-12-21T21:09:13.777Z,11.00
2018-12-21T21:11:41.959Z,10.90
2018-12-21T21:14:11.992Z,11.00
2018-12-21T21:16:40.168Z,11.00
2018-12-21T21:19:08.443Z,11.00
2018-12-21T21:21:36.657Z,11.00
2018-12-21T21:24:05.116Z,11.00
2018-12-21T21:26:33.333Z,11.00
2018-12-21T21:29:01.520Z,11.00
2018-12-21T21:31:31.334Z,11.00
2018-12-21T21:33:59.547Z,11.00
2018-12-21T21:36:27.805Z,11.00
2018-12-21T21:38:56.001Z,11.10
2018-12-21T21:41:24.817Z,11.00
2018-12-21T21:43:53.001Z,11.10
2018-12-21T21:46:21.477Z,11.10
2018-12-21T21:48:49.660Z,11.10
2018-12-21T21:51:17.854Z,11.10
2018-12-21T21:53:46.072Z,11.20
2018-12-21T21:56:14.319Z,11.20
2018-12-21T21:58:42.492Z,11.10
2018-12-21T22:01:10.685Z,11.10
2018-12-21T22:03:38.880Z,11.10
2018-12-21T22:06:07.380Z,11.10
2018-12-21T22:08:35.574Z,11.10
2018-12-21T22:11:03.928Z,11.10
2018-12-21T22:13:32.116Z,11.10
2018-12-21T22:16:00.354Z,11.10
2018-12-21T22:18:28.599Z,11.10
2018-12-21T22:20:57.864Z,11.20
2018-12-21T22:23:26.453Z,11.20
2018-12-21T22:25:54.643Z,11.20
2018-12-21T22:28:22.817Z,11.20
2018-12-21T22:30:51.005Z,11.10
2018-12-21T22:33:19.187Z,11.10
2018-12-21T22:35:47.679Z,11.20
2018-12-21T22:38:15.965Z,11.20
2018-12-21T22:40:44.179Z,11.30
2018-12-21T22:43:12.365Z,11.30
2018-12-21T22:45:40.544Z,11.30
2018-12-21T22:48:08.733Z,11.30
2018-12-21T22:50:36.928Z,11.40
2018-12-21T22:53:05.129Z,11.40
2018-12-21T22:55:33.361Z,11.40
2018-12-21T22:58:01.577Z,11.40
2018-12-21T23:00:33.212Z,11.40
2018-12-21T23:03:01.732Z,11.40
2018-12-21T23:05:30.025Z,11.30
2018-12-21T23:07:58.306Z,11.40
2018-12-21T23:10:26.580Z,11.30
2018-12-21T23:12:54.776Z,11.30
2018-12-21T23:15:22.964Z,11.30
2018-12-21T23:17:51.154Z,11.30
2018-12-21T23:20:19.344Z,11.40
2018-12-21T23:22:47.617Z,11.30
2018-12-21T23:25:15.897Z,11.30
2018-12-21T23:27:44.077Z,11.20
2018-12-21T23:30:12.421Z,11.20
2018-12-21T23:32:40.622Z,11.20
2018-12-21T23:35:09.206Z,11.30
2018-12-21T23:37:37.681Z,11.20
2018-12-21T23:40:07.425Z,11.20
2018-12-21T23:42:36.888Z,11.10
2018-12-21T23:45:05.408Z,11.10
2018-12-21T23:47:33.609Z,11.10
2018-12-21T23:50:01.789Z,11.20
2018-12-21T23:52:30.060Z,11.20
2018-12-21T23:54:58.252Z,11.20
2018-12-21T23:57:26.808Z,11.20
2018-12-21T23:59:54.993Z,11.10
